Time;durP1;ratioP1;P1;durP2;ratioP2;P2;SDS_P1;SDS_P2;PMS_P1;PMS_P2;Temp;Humidity;BMP_temperature;BMP_pressure;BME280_temperature;BME280_humidity;BME280_pressure;Samples;Min_cycle;Max_cycle;Signal;HPM_P1;HPM_P2
2023/08/18 00:02:25;;;;;;;13.25;8.00;;;;;;;17.75;60.90;97286.50;6228986;28;20130;-69
2023/08/18 00:05:26;;;;;;;12.65;8.15;;;;;;;17.72;61.06;97281.44;6227090;28;20095;-69
2023/08/18 00:08:27;;;;;;;10.45;8.00;;;;;;;17.70;61.54;97283.41;6224499;28;20055;-68
2023/08/18 00:11:32;;;;;;;14.45;8.35;;;;;;;17.69;61.47;97287.88;6226401;28;20034;-68
2023/08/18 00:14:33;;;;;;;8.77;7.25;;;;;;;17.70;61.56;97288.72;6225919;28;20382;-69
2023/08/18 00:17:37;;;;;;;13.02;8.05;;;;;;;17.50;61.49;97267.34;6227461;28;20041;-69
2023/08/18 00:20:41;;;;;;;12.48;7.47;;;;;;;17.69;61.70;97298.53;6227204;28;20076;-69
2023/08/18 00:23:45;;;;;;;13.52;7.38;;;;;;;17.64;61.80;97299.91;6226567;28;20041;-68
2023/08/18 00:26:51;;;;;;;14.07;8.40;;;;;;;17.64;62.08;97307.88;6212706;28;20047;-69
2023/08/18 00:29:55;;;;;;;13.00;8.02;;;;;;;17.67;62.19;97299.63;6201610;28;20094;-69
2023/08/18 00:33:00;;;;;;;17.58;9.82;;;;;;;17.63;62.52;97306.19;6200253;28;20042;-70
2023/08/18 00:36:04;;;;;;;13.45;8.57;;;;;;;17.65;62.92;97307.72;6202054;28;20041;-68
2023/08/18 00:39:08;;;;;;;12.18;8.30;;;;;;;17.81;63.17;97304.63;6181655;28;20050;-68
2023/08/18 00:42:12;;;;;;;13.27;8.73;;;;;;;17.82;63.29;97300.97;6185331;28;20037;-70
2023/08/18 00:45:16;;;;;;;21.75;9.57;;;;;;;17.89;63.50;97307.47;6203096;28;20054;-68
2023/08/18 00:48:21;;;;;;;14.20;8.43;;;;;;;17.97;63.52;97303.28;6201482;28;20524;-68
2023/08/18 00:51:22;;;;;;;16.38;9.13;;;;;;;17.97;62.99;97311.25;6179699;28;20162;-69
2023/08/18 00:54:27;;;;;;;12.45;7.95;;;;;;;17.95;62.92;97316.72;6200796;28;20065;-69
2023/08/18 00:57:32;;;;;;;14.30;8.23;;;;;;;17.90;62.89;97319.78;6196710;28;20444;-69
2023/08/18 01:00:33;;;;;;;14.60;8.65;;;;;;;17.78;63.21;97323.53;6184351;28;20046;-67
2023/08/18 01:03:38;;;;;;;14.23;8.90;;;;;;;17.68;63.11;97315.44;6200426;28;20112;-68
2023/08/18 01:06:40;;;;;;;13.80;8.23;;;;;;;17.67;62.93;97318.25;6184489;28;20061;-67
2023/08/18 01:09:41;;;;;;;25.65;16.85;;;;;;;17.70;63.11;97320.66;6192264;28;20049;-68
2023/08/18 01:13:05;;;;;;;21.95;11.75;;;;;;;17.71;63.07;97327.66;6194399;28;20037;-68
2023/08/18 01:16:15;;;;;;;12.88;9.82;;;;;;;17.68;63.03;97327.91;6201716;28;20042;-69
2023/08/18 01:19:21;;;;;;;16.73;8.68;;;;;;;17.66;63.08;97341.38;6198142;28;20417;-67
2023/08/18 01:22:24;;;;;;;17.13;9.70;;;;;;;17.66;63.27;97329.88;6201444;28;20054;-67
2023/08/18 01:25:29;;;;;;;19.23;9.68;;;;;;;17.68;63.60;97333.25;6201528;28;20046;-68
2023/08/18 01:28:31;;;;;;;16.77;8.90;;;;;;;17.75;63.89;97318.44;6203920;28;20042;-69
2023/08/18 01:31:38;;;;;;;20.25;10.35;;;;;;;17.86;63.96;97330.81;6200445;28;20638;-68
2023/08/18 01:34:45;;;;;;;22.58;9.82;;;;;;;17.93;64.01;97332.00;6201663;28;20259;-69
2023/08/18 01:37:47;;;;;;;19.08;10.38;;;;;;;18.00;64.17;97332.28;6164421;28;20049;-68
2023/08/18 01:40:51;;;;;;;17.98;9.63;;;;;;;18.09;64.01;97336.81;6206493;28;20041;-70
2023/08/18 01:43:55;;;;;;;20.92;10.45;;;;;;;18.16;63.76;97343.28;6190510;28;20049;-68
2023/08/18 01:46:56;;;;;;;24.70;10.45;;;;;;;18.21;63.57;97343.72;6201638;28;20041;-68
2023/08/18 01:49:58;;;;;;;18.85;10.23;;;;;;;18.26;63.21;97336.19;6181877;28;20050;-67
2023/08/18 01:52:59;;;;;;;18.35;8.73;;;;;;;18.33;63.31;97339.97;6183960;28;20410;-68
2023/08/18 01:56:03;;;;;;;40.53;22.10;;;;;;;18.38;63.01;97342.22;6197901;28;20062;-69
2023/08/18 01:59:06;;;;;;;21.35;12.02;;;;;;;18.49;63.00;97349.28;6196105;28;20030;-70
2023/08/18 02:02:12;;;;;;;17.48;10.25;;;;;;;18.40;62.94;97325.13;6195577;28;20038;-68
2023/08/18 02:05:19;;;;;;;17.42;10.50;;;;;;;18.70;62.78;97342.00;6197116;28;20497;-69
2023/08/18 02:08:21;;;;;;;22.15;9.77;;;;;;;18.82;62.72;97351.59;6201254;28;20064;-67
2023/08/18 02:11:27;;;;;;;18.70;10.13;;;;;;;18.98;62.51;97352.84;6199352;28;20038;-69
2023/08/18 02:14:33;;;;;;;16.85;9.50;;;;;;;19.12;61.84;97351.59;6199925;28;20038;-69
2023/08/18 02:17:35;;;;;;;30.08;10.45;;;;;;;19.25;61.31;97347.66;6196888;28;20058;-68
2023/08/18 02:20:39;;;;;;;20.70;9.65;;;;;;;19.54;60.92;97352.09;6196691;28;20042;-68
2023/08/18 02:23:41;;;;;;;23.30;9.88;;;;;;;19.83;60.21;97367.22;6183274;28;20144;-70
2023/08/18 02:26:45;;;;;;;59.05;34.83;;;;;;;20.04;59.15;97359.84;6198276;28;20050;-69
2023/08/18 02:29:52;;;;;;;22.70;12.20;;;;;;;20.24;58.82;97359.75;6194055;28;20046;-69
2023/08/18 02:32:55;;;;;;;13.75;9.15;;;;;;;20.44;57.98;97356.00;6168794;28;20091;-70
2023/08/18 02:35:59;;;;;;;18.33;8.95;;;;;;;20.59;57.98;97351.00;6193223;28;20033;-70
2023/08/18 02:39:03;;;;;;;16.63;9.02;;;;;;;20.84;57.24;97346.75;6195722;28;20048;-69
2023/08/18 02:42:07;;;;;;;15.52;8.63;;;;;;;21.10;56.72;97348.69;6195617;28;20042;-68
2023/08/18 02:45:09;;;;;;;20.42;9.38;;;;;;;21.32;55.93;97344.69;6174028;28;20082;-69
2023/08/18 02:48:13;;;;;;;19.50;8.80;;;;;;;21.62;55.35;97346.91;6196758;28;20496;-69
2023/08/18 02:51:17;;;;;;;15.68;9.48;;;;;;;21.86;54.73;97342.75;6197733;28;20049;-70
2023/08/18 02:54:21;;;;;;;20.48;10.43;;;;;;;21.99;54.94;97340.44;6193987;28;20050;-70
2023/08/18 02:57:24;;;;;;;20.77;10.68;;;;;;;22.16;54.35;97338.69;6200185;28;20038;-69
2023/08/18 03:00:28;;;;;;;21.63;11.10;;;;;;;22.38;53.80;97342.66;6179368;28;20037;-69
2023/08/18 03:03:32;;;;;;;24.10;11.80;;;;;;;22.51;52.99;97342.22;6193027;28;20045;-69
2023/08/18 03:06:36;;;;;;;20.50;12.23;;;;;;;22.58;52.55;97337.88;6197660;28;20042;-70
2023/08/18 03:09:41;;;;;;;18.60;12.27;;;;;;;22.70;52.33;97336.53;6182051;28;20422;-68
2023/08/18 03:12:45;;;;;;;26.95;12.13;;;;;;;22.93;51.62;97343.97;6195309;28;20399;-68
2023/08/18 03:15:49;;;;;;;18.38;11.23;;;;;;;23.13;51.21;97342.69;6196568;28;20502;-69
2023/08/18 03:18:53;;;;;;;19.67;11.48;;;;;;;23.27;50.65;97339.34;6196810;28;20054;-68
2023/08/18 03:21:58;;;;;;;19.45;11.82;;;;;;;23.46;50.33;97334.63;6197570;28;20374;-69
2023/08/18 03:25:00;;;;;;;22.67;12.80;;;;;;;23.66;49.53;97333.25;6194531;28;20093;-69
2023/08/18 03:28:05;;;;;;;21.38;12.32;;;;;;;23.74;49.65;97329.75;6196104;28;20465;-68
2023/08/18 03:31:12;;;;;;;25.13;15.10;;;;;;;23.75;49.47;97344.88;6198089;28;20042;-69
2023/08/18 03:34:14;;;;;;;22.17;13.20;;;;;;;23.70;49.52;97340.00;6198583;28;20045;-68
2023/08/18 03:37:20;;;;;;;28.73;18.42;;;;;;;23.64;49.68;97337.97;6198193;28;20061;-69
2023/08/18 03:40:27;;;;;;;31.85;15.75;;;;;;;23.64;49.96;97339.81;6197226;28;20042;-69
2023/08/18 03:43:28;;;;;;;32.65;17.88;;;;;;;23.59;50.02;97331.44;6194004;28;20049;-70
2023/08/18 03:46:35;;;;;;;34.40;15.25;;;;;;;23.58;50.28;97345.84;6193586;28;20053;-69
2023/08/18 03:49:41;;;;;;;23.63;15.25;;;;;;;23.59;49.94;97336.81;6198578;28;20054;-68
2023/08/18 03:52:42;;;;;;;21.38;14.57;;;;;;;23.66;49.84;97341.31;6195298;28;20057;-70
2023/08/18 03:55:52;;;;;;;31.88;16.33;;;;;;;23.69;49.50;97348.19;6195610;28;20042;-68
2023/08/18 03:58:56;;;;;;;26.73;15.60;;;;;;;23.73;49.43;97342.34;6185856;28;20193;-69
2023/08/18 04:02:05;;;;;;;28.38;16.52;;;;;;;23.81;49.73;97346.88;6200452;28;20064;-68
2023/08/18 04:05:06;;;;;;;29.88;15.98;;;;;;;23.89;49.01;97348.69;6203004;28;20057;-68
2023/08/18 04:08:07;;;;;;;32.85;16.38;;;;;;;23.93;48.96;97348.19;6197391;28;20531;-70
2023/08/18 04:11:12;;;;;;;33.25;17.45;;;;;;;24.04;48.53;97348.84;6201507;28;20050;-69
2023/08/18 04:14:18;;;;;;;29.63;17.75;;;;;;;24.14;48.46;97346.78;6200716;28;20050;-70
2023/08/18 04:17:21;;;;;;;28.38;16.30;;;;;;;24.19;48.62;97349.78;6204278;28;20042;-68
2023/08/18 04:20:23;;;;;;;39.60;22.30;;;;;;;24.34;47.80;97347.19;6198077;28;20046;-68
2023/08/18 04:23:28;;;;;;;44.85;25.20;;;;;;;24.45;48.12;97343.31;6198229;28;20049;-67
2023/08/18 04:26:37;;;;;;;48.00;25.40;;;;;;;24.65;47.56;97350.78;6203538;28;20050;-68
2023/08/18 04:29:38;;;;;;;54.35;26.80;;;;;;;24.86;47.23;97352.84;6181243;28;20146;-67
2023/08/18 04:32:43;;;;;;;45.33;27.98;;;;;;;25.00;46.75;97348.56;6205096;28;20419;-68
2023/08/18 04:35:46;;;;;;;48.25;27.52;;;;;;;25.15;46.00;97340.56;6205104;28;20054;-69
2023/08/18 04:38:50;;;;;;;52.47;28.40;;;;;;;25.29;45.75;97349.72;6198345;28;20046;-69
2023/08/18 04:41:53;;;;;;;50.17;26.15;;;;;;;25.42;44.93;97341.88;6201078;28;20050;-67
2023/08/18 04:44:55;;;;;;;48.92;27.10;;;;;;;25.51;45.26;97340.78;6195807;28;20115;-68
2023/08/18 04:47:59;;;;;;;46.33;25.58;;;;;;;25.66;44.64;97337.28;6197260;28;20038;-68
2023/08/18 04:51:03;;;;;;;49.97;26.30;;;;;;;25.81;44.24;97331.91;6201143;28;20489;-68
2023/08/18 04:54:07;;;;;;;45.20;26.10;;;;;;;25.95;43.87;97342.72;6194294;28;20502;-68
2023/08/18 04:57:10;;;;;;;47.88;25.75;;;;;;;26.18;43.25;97334.56;6196791;28;20045;-68
2023/08/18 05:00:12;;;;;;;47.30;25.90;;;;;;;27.19;41.29;97334.72;6184556;28;20136;-67
2023/08/18 05:03:15;;;;;;;47.47;26.50;;;;;;;30.50;35.53;97343.34;6200465;28;20409;-69
2023/08/18 05:06:19;;;;;;;37.47;23.27;;;;;;;34.12;30.24;97350.03;6193451;28;20062;-69
2023/08/18 05:09:21;;;;;;;41.30;23.80;;;;;;;37.07;26.33;97342.53;6198480;28;20625;-67
2023/08/18 05:12:25;;;;;;;40.88;21.95;;;;;;;39.38;23.38;97349.53;6196319;28;20050;-69
2023/08/18 05:15:32;;;;;;;36.70;20.77;;;;;;;41.09;21.33;97358.13;6200163;28;20038;-68
2023/08/18 05:18:36;;;;;;;33.08;19.30;;;;;;;42.47;19.74;97365.34;6200379;28;20085;-68
2023/08/18 05:21:37;;;;;;;26.90;16.88;;;;;;;43.67;18.00;97349.34;6202026;28;20136;-69
2023/08/18 05:24:39;;;;;;;28.95;19.42;;;;;;;44.47;17.29;97355.69;6199786;28;20409;-68
2023/08/18 05:27:44;;;;;;;25.67;16.20;;;;;;;45.56;16.54;97352.31;6198306;28;20053;-69
2023/08/18 05:30:48;;;;;;;31.15;15.90;;;;;;;46.64;15.49;97358.69;6197246;28;20051;-70
2023/08/18 05:33:54;;;;;;;33.38;20.23;;;;;;;47.30;14.61;97358.69;6200314;28;20592;-69
2023/08/18 05:37:00;;;;;;;16.52;12.60;;;;;;;47.87;13.73;97358.53;6177992;28;20042;-68
2023/08/18 05:40:09;;;;;;;19.92;13.20;;;;;;;48.45;13.26;97348.72;6199943;28;20112;-69
2023/08/18 05:43:18;;;;;;;26.08;18.83;;;;;;;48.73;13.02;97353.88;6199144;28;20497;-70
2023/08/18 05:46:23;;;;;;;28.50;15.50;;;;;;;49.17;12.77;97357.22;6200286;28;20085;-70
2023/08/18 05:49:30;;;;;;;26.30;15.18;;;;;;;49.61;12.44;97355.75;6199981;28;20042;-72
2023/08/18 05:52:34;;;;;;;20.58;13.07;;;;;;;50.11;12.28;97351.16;6197774;28;20065;-70
2023/08/18 05:55:36;;;;;;;20.30;13.25;;;;;;;50.32;12.21;97353.91;6181063;28;20038;-69
2023/08/18 05:58:40;;;;;;;37.30;25.95;;;;;;;50.58;11.84;97350.78;6198831;28;20650;-72
2023/08/18 06:01:42;;;;;;;24.35;13.57;;;;;;;50.67;11.69;97357.09;6199015;28;20181;-71
2023/08/18 06:04:44;;;;;;;16.02;11.52;;;;;;;50.82;11.62;97350.00;6200990;28;20050;-69
2023/08/18 06:07:52;;;;;;;25.90;18.90;;;;;;;51.14;11.46;97356.63;6183782;28;20042;-71
2023/08/18 06:10:57;;;;;;;15.88;11.38;;;;;;;51.40;11.05;97355.41;6165458;28;20050;-70
2023/08/18 06:14:02;;;;;;;22.35;11.60;;;;;;;51.58;10.88;97347.50;6197742;28;20054;-69
2023/08/18 06:17:07;;;;;;;17.13;10.60;;;;;;;51.76;10.65;97345.25;6201985;28;20525;-71
2023/08/18 06:20:14;;;;;;;17.90;10.25;;;;;;;52.02;10.63;97342.78;6197209;28;20034;-71
2023/08/18 06:23:16;;;;;;;29.83;18.42;;;;;;;52.33;10.43;97341.19;6193160;28;20050;-70
2023/08/18 06:26:19;;;;;;;19.17;11.32;;;;;;;53.01;10.17;97336.47;6195103;28;20136;-70
2023/08/18 06:29:27;;;;;;;24.38;9.48;;;;;;;53.55;9.71;97332.81;6186364;28;20038;-68
2023/08/18 06:32:34;;;;;;;13.27;8.95;;;;;;;53.70;9.10;97334.75;6182374;28;20040;-71
2023/08/18 06:35:37;;;;;;;10.70;7.07;;;;;;;53.72;8.76;97334.38;6196461;28;20196;-68
2023/08/18 06:38:40;;;;;;;10.23;6.63;;;;;;;52.90;8.79;97322.94;6197015;28;20042;-69
2023/08/18 06:41:49;;;;;;;10.07;5.95;;;;;;;53.07;8.98;97318.91;6199191;28;20077;-70
2023/08/18 06:44:54;;;;;;;7.43;5.90;;;;;;;53.48;8.96;97321.41;6180828;28;20532;-70
2023/08/18 06:47:59;;;;;;;8.95;5.60;;;;;;;53.92;8.39;97318.28;6175760;28;20145;-69
2023/08/18 06:51:03;;;;;;;13.25;7.10;;;;;;;54.31;8.81;97318.19;6196914;28;20046;-69
2023/08/18 06:54:35;;;;;;;12.10;6.22;;;;;;;55.20;8.04;97324.41;6196361;28;20065;-70
2023/08/18 06:57:43;;;;;;;11.23;6.88;;;;;;;54.74;8.42;97307.66;6197861;28;20434;-68
2023/08/18 07:00:57;;;;;;;13.32;6.57;;;;;;;54.91;7.67;97312.72;6197407;28;20114;-67
2023/08/18 07:04:00;;;;;;;11.95;6.70;;;;;;;54.78;7.95;97300.03;6193223;28;20077;-69
2023/08/18 07:07:03;;;;;;;11.07;6.07;;;;;;;55.01;7.71;97306.47;6193163;28;20050;-67
2023/08/18 07:10:12;;;;;;;14.52;6.65;;;;;;;54.84;8.12;97295.69;6198842;28;20038;-67
2023/08/18 07:13:20;;;;;;;9.80;6.35;;;;;;;54.80;7.89;97294.84;6198054;28;20066;-77
2023/08/18 07:16:27;;;;;;;9.68;6.22;;;;;;;54.99;8.01;97293.94;6196038;28;20046;-74
2023/08/18 07:19:31;;;;;;;10.82;6.15;;;;;;;55.26;7.92;97289.03;6195638;28;20041;-72
2023/08/18 07:22:35;;;;;;;13.13;6.45;;;;;;;55.16;7.56;97282.88;6178748;28;20051;-70
2023/08/18 07:25:39;;;;;;;10.32;5.72;;;;;;;54.59;7.67;97279.22;6203416;28;20568;-70
2023/08/18 07:28:43;;;;;;;11.85;6.55;;;;;;;54.51;8.08;97283.13;6199512;28;20046;-77
2023/08/18 07:31:52;;;;;;;8.05;3.90;;;;;;;54.62;7.36;97284.09;6200493;28;20059;-74
2023/08/18 07:34:58;;;;;;;8.40;3.53;;;;;;;54.75;7.82;97270.59;6199027;28;20061;-73
2023/08/18 07:38:03;;;;;;;9.00;3.85;;;;;;;54.71;7.68;97258.47;6199016;28;20072;-72
2023/08/18 07:41:11;;;;;;;9.13;3.65;;;;;;;53.93;7.72;97255.94;6204210;28;20561;-69
2023/08/18 07:44:16;;;;;;;6.25;3.40;;;;;;;53.60;7.56;97265.00;6169803;28;20529;-71
2023/08/18 07:47:20;;;;;;;7.15;3.33;;;;;;;54.09;6.93;97255.06;6201509;28;20041;-72
2023/08/18 07:50:23;;;;;;;6.45;3.10;;;;;;;53.83;7.71;97254.59;6201755;28;20057;-69
2023/08/18 07:53:30;;;;;;;5.93;3.13;;;;;;;54.00;7.08;97244.06;6199944;28;20148;-73
2023/08/18 07:56:32;;;;;;;14.43;10.80;;;;;;;54.91;6.88;97250.69;6203546;28;21390;-67
2023/08/18 07:59:37;;;;;;;8.35;4.07;;;;;;;55.76;7.13;97244.50;6196816;28;20188;-68
2023/08/18 08:02:38;;;;;;;6.10;3.63;;;;;;;56.32;6.39;97243.41;6198983;28;20526;-73
2023/08/18 08:05:45;;;;;;;4.90;3.20;;;;;;;55.62;6.50;97238.72;6198980;28;20060;-73
2023/08/18 08:08:46;;;;;;;9.70;8.05;;;;;;;56.03;6.54;97237.53;6197710;28;20038;-77
2023/08/18 08:11:51;;;;;;;6.45;3.08;;;;;;;56.08;6.74;97227.84;6197443;28;20034;-73
2023/08/18 08:14:58;;;;;;;4.93;2.78;;;;;;;55.56;6.90;97235.41;6201911;28;20099;-73
2023/08/18 08:18:03;;;;;;;8.32;3.35;;;;;;;56.25;6.86;97223.56;6198236;28;20068;-74
2023/08/18 08:21:12;;;;;;;4.03;2.88;;;;;;;56.56;6.27;97225.03;6200620;28;20497;-74
2023/08/18 08:24:17;;;;;;;5.10;3.05;;;;;;;56.79;5.86;97216.25;6199875;28;20705;-74
2023/08/18 08:27:21;;;;;;;5.30;3.03;;;;;;;56.94;6.40;97222.00;6198856;28;20054;-73
2023/08/18 08:30:24;;;;;;;5.72;3.17;;;;;;;57.10;6.22;97225.31;6183603;28;20038;-73
2023/08/18 08:33:33;;;;;;;5.72;2.80;;;;;;;57.38;5.70;97223.81;6197163;28;20132;-73
2023/08/18 08:36:38;;;;;;;4.95;2.90;;;;;;;57.26;6.04;97205.19;6183441;28;20038;-73
2023/08/18 08:39:42;;;;;;;5.68;2.75;;;;;;;57.10;6.24;97208.34;6202885;28;20204;-72
2023/08/18 08:42:48;;;;;;;4.63;2.65;;;;;;;57.02;6.70;97209.50;6197077;28;20460;-75
2023/08/18 08:45:54;;;;;;;5.28;2.63;;;;;;;56.69;6.42;97209.34;6198735;28;20644;-72
2023/08/18 08:49:04;;;;;;;5.10;2.88;;;;;;;56.52;6.15;97195.09;6196553;28;20495;-73
2023/08/18 08:52:10;;;;;;;5.78;2.42;;;;;;;56.52;6.34;97201.56;6200807;28;20165;-75
2023/08/18 08:55:16;;;;;;;3.92;2.60;;;;;;;56.43;5.83;97196.28;6199848;28;20420;-72
2023/08/18 08:58:21;;;;;;;4.88;2.85;;;;;;;55.95;6.72;97193.47;6200582;28;20049;-74
2023/08/18 09:01:25;;;;;;;12.10;3.53;;;;;;;55.29;6.65;97186.75;6204695;28;20627;-74
2023/08/18 09:04:28;;;;;;;5.13;3.03;;;;;;;55.04;7.06;97187.28;6198102;28;20132;-74
2023/08/18 09:07:33;;;;;;;4.70;2.97;;;;;;;54.91;6.97;97188.69;6197830;28;20092;-73
2023/08/18 09:10:39;;;;;;;4.53;2.63;;;;;;;54.85;7.11;97184.59;6197627;28;20042;-72
2023/08/18 09:13:44;;;;;;;5.65;3.00;;;;;;;54.97;7.35;97181.53;6195687;28;20042;-74
2023/08/18 09:16:52;;;;;;;4.63;2.80;;;;;;;55.30;6.66;97165.81;6197135;28;20042;-72
2023/08/18 09:19:57;;;;;;;5.20;2.90;;;;;;;55.59;6.90;97162.09;6176680;28;20078;-72
2023/08/18 09:23:02;;;;;;;5.95;3.50;;;;;;;55.73;6.82;97169.06;6195668;28;20143;-72
2023/08/18 09:26:08;;;;;;;10.63;3.58;;;;;;;55.24;7.32;97164.50;6198113;28;20545;-73
2023/08/18 09:29:10;;;;;;;12.70;3.50;;;;;;;54.99;7.12;97164.25;6197695;28;20188;-73
2023/08/18 09:32:14;;;;;;;7.72;3.45;;;;;;;54.74;7.27;97161.09;6182236;28;20441;-73
2023/08/18 09:35:24;;;;;;;8.57;3.78;;;;;;;52.01;8.18;97150.31;6201145;28;20053;-71
2023/08/18 09:38:47;;;;;;;8.40;3.80;;;;;;;50.12;9.38;97142.91;6183954;28;20073;-73
2023/08/18 09:41:51;;;;;;;9.50;5.80;;;;;;;50.00;9.38;97142.91;6195517;28;20064;-73
2023/08/18 09:45:00;;;;;;;6.63;4.70;;;;;;;49.61;9.93;97137.63;6195665;28;20501;-73
2023/08/18 09:48:03;;;;;;;10.07;4.38;;;;;;;50.35;9.32;97143.25;6195307;28;20061;-72
2023/08/18 09:51:12;;;;;;;7.95;3.58;;;;;;;51.30;9.07;97142.78;6197117;28;20052;-71
2023/08/18 09:54:19;;;;;;;8.68;3.42;;;;;;;51.81;8.65;97146.59;6180233;28;20948;-72
2023/08/18 09:57:34;;;;;;;7.13;3.65;;;;;;;50.50;9.03;97138.88;6192364;28;20144;-73
2023/08/18 10:00:41;;;;;;;9.38;3.30;;;;;;;49.31;10.02;97138.94;6197249;28;20330;-73
2023/08/18 10:03:48;;;;;;;6.90;3.28;;;;;;;50.07;9.61;97137.53;6193999;28;20180;-73
2023/08/18 10:06:54;;;;;;;11.85;3.70;;;;;;;50.25;9.20;97127.72;6196281;28;20132;-73
2023/08/18 10:09:57;;;;;;;7.93;3.50;;;;;;;48.31;10.05;97119.25;6195593;28;21639;-73
2023/08/18 10:12:59;;;;;;;7.07;4.60;;;;;;;46.28;11.12;97115.63;6197708;28;20211;-72
2023/08/18 10:16:05;;;;;;;5.47;3.55;;;;;;;45.70;11.62;97103.69;6196772;28;20115;-74
2023/08/18 10:19:14;;;;;;;7.25;4.75;;;;;;;43.62;12.72;97100.00;6198898;28;20045;-72
2023/08/18 10:22:23;;;;;;;4.53;3.35;;;;;;;41.52;14.23;97091.31;6194758;28;20046;-74
2023/08/18 10:25:35;;;;;;;7.03;3.72;;;;;;;39.93;15.46;97083.41;6200608;28;20508;-73
2023/08/18 10:28:43;;;;;;;6.10;3.80;;;;;;;39.80;15.50;97087.59;6194874;28;20667;-70
2023/08/18 10:31:50;;;;;;;4.82;3.42;;;;;;;41.57;14.04;97098.72;6197318;28;20038;-71
2023/08/18 10:35:21;;;;;;;34.78;23.90;;;;;;;41.38;13.84;97096.69;6197383;28;20054;-71
2023/08/18 10:38:29;;;;;;;7.22;4.85;;;;;;;42.57;13.38;97097.66;6195556;28;20038;-71
2023/08/18 10:41:32;;;;;;;4.78;3.95;;;;;;;43.87;12.52;97097.84;6188189;28;20064;-72
2023/08/18 10:44:38;;;;;;;5.85;2.85;;;;;;;42.86;13.33;97084.78;6201839;28;20025;-76
2023/08/18 10:47:46;;;;;;;8.07;4.35;;;;;;;41.39;14.30;97091.97;6198264;28;20042;-72
2023/08/18 10:50:50;;;;;;;4.93;3.35;;;;;;;40.48;15.21;97081.44;6197323;28;20043;-73
2023/08/18 10:53:57;;;;;;;7.78;3.15;;;;;;;41.56;14.25;97080.47;6198871;28;20046;-73
2023/08/18 10:56:58;;;;;;;4.25;3.30;;;;;;;43.18;13.08;97083.97;6196962;28;20042;-73
2023/08/18 11:00:05;;;;;;;4.07;3.38;;;;;;;44.60;12.30;97091.25;6180980;28;20052;-74
2023/08/18 11:03:07;;;;;;;8.45;5.03;;;;;;;45.62;11.38;97096.16;6195363;28;20422;-74
2023/08/18 11:06:23;;;;;;;7.68;2.70;;;;;;;46.18;11.24;97096.47;6201012;28;20039;-75
2023/08/18 11:09:27;;;;;;;4.35;2.65;;;;;;;46.14;11.24;97090.72;6199396;28;20054;-74
2023/08/18 11:12:32;;;;;;;5.45;3.05;;;;;;;45.89;11.46;97095.09;6202243;28;20045;-74
2023/08/18 11:15:38;;;;;;;6.97;4.10;;;;;;;45.61;11.81;97085.34;6209176;28;20516;-75
2023/08/18 11:18:44;;;;;;;5.72;3.25;;;;;;;44.80;12.68;97091.91;6203980;28;20046;-75
2023/08/18 11:21:48;;;;;;;9.70;4.47;;;;;;;42.68;14.32;97089.19;6210983;28;20057;-73
2023/08/18 11:24:50;;;;;;;12.00;4.32;;;;;;;40.14;16.24;97084.97;6206323;28;20081;-75
2023/08/18 11:27:52;;;;;;;;;;;;;;;38.89;17.57;97085.88;6207580;28;20400;-74
2023/08/18 11:30:55;;;;;;;6.65;3.72;;;;;;;36.56;19.02;97084.25;6200950;28;20016;-75
2023/08/18 11:33:58;;;;;;;7.38;3.67;;;;;;;35.14;20.37;97095.13;6210288;28;20045;-75
2023/08/18 11:37:05;;;;;;;7.00;3.33;;;;;;;33.99;21.65;97089.78;6209102;28;20165;-74
2023/08/18 11:40:10;;;;;;;9.82;3.88;;;;;;;33.04;23.45;97101.97;6208971;28;20102;-74
2023/08/18 11:43:15;;;;;;;4.45;3.70;;;;;;;32.42;24.12;97106.91;6186400;28;20124;-76
2023/08/18 11:46:22;;;;;;;6.60;3.92;;;;;;;31.46;26.42;97119.44;6207086;28;20046;-76
2023/08/18 11:49:26;;;;;;;5.38;3.40;;;;;;;30.89;27.68;97129.59;6201978;28;20541;-75
2023/08/18 11:52:44;;;;;;;5.07;3.42;;;;;;;30.33;27.21;97137.50;6175563;28;20033;-74
2023/08/18 11:55:48;;;;;;;4.57;3.60;;;;;;;30.13;28.56;97153.03;6204246;28;20417;-76
2023/08/18 11:58:50;;;;;;;;;;;;;;;29.76;28.63;97147.38;6203544;28;20077;-75
2023/08/18 12:01:58;;;;;;;4.05;3.20;;;;;;;29.47;29.69;97149.50;6203615;28;19921;-74
2023/08/18 12:05:05;;;;;;;6.75;3.95;;;;;;;29.38;30.12;97155.34;6206856;28;20042;-74
2023/08/18 12:08:12;;;;;;;10.65;6.30;;;;;;;29.38;30.11;97150.75;6211776;28;20045;-76
2023/08/18 12:11:17;;;;;;;6.10;4.43;;;;;;;29.52;29.66;97146.16;6211839;28;20037;-72
2023/08/18 12:14:24;;;;;;;5.93;3.90;;;;;;;29.69;29.45;97133.81;6202157;28;20042;-74
2023/08/18 12:17:30;;;;;;;6.43;4.95;;;;;;;29.83;29.01;97150.88;6202203;28;20403;-72
2023/08/18 12:20:35;;;;;;;5.88;4.40;;;;;;;29.96;28.90;97150.81;6199391;28;20176;-73
2023/08/18 12:23:39;;;;;;;7.22;3.80;;;;;;;30.06;29.32;97142.19;6204558;28;20140;-72
2023/08/18 12:26:41;;;;;;;7.40;4.15;;;;;;;30.11;29.03;97139.66;6200643;28;20502;-79
2023/08/18 12:29:47;;;;;;;19.40;5.45;;;;;;;30.14;29.48;97141.94;6201486;28;20042;-75
2023/08/18 12:32:51;;;;;;;7.80;4.35;;;;;;;30.11;29.50;97138.84;6202371;28;20137;-74
2023/08/18 12:35:56;;;;;;;9.82;5.28;;;;;;;30.04;29.66;97138.06;6198753;28;20069;-75
2023/08/18 12:38:57;;;;;;;12.02;4.90;;;;;;;29.99;29.86;97141.41;6200748;28;20144;-73
2023/08/18 12:42:01;;;;;;;11.57;5.13;;;;;;;29.91;30.25;97139.78;6203994;28;20042;-73
2023/08/18 12:45:07;;;;;;;10.55;5.43;;;;;;;29.79;31.02;97146.09;6205293;28;20057;-74
2023/08/18 12:48:11;;;;;;;9.60;5.55;;;;;;;29.60;31.04;97147.78;6189795;28;20045;-75
2023/08/18 12:51:17;;;;;;;9.52;5.78;;;;;;;29.44;31.59;97151.78;6202233;28;20129;-73
2023/08/18 12:54:25;;;;;;;11.77;6.10;;;;;;;29.22;32.60;97140.41;6207752;28;20065;-73
2023/08/18 12:57:27;;;;;;;10.98;6.53;;;;;;;29.00;33.19;97150.59;6202404;28;20057;-74
2023/08/18 13:00:31;;;;;;;10.32;6.05;;;;;;;28.72;33.77;97139.97;6206130;28;20038;-73
2023/08/18 13:03:36;;;;;;;12.25;6.20;;;;;;;28.56;34.42;97155.59;6196581;28;20689;-73
2023/08/18 13:06:39;;;;;;;13.00;8.95;;;;;;;28.34;35.22;97151.34;6202651;28;20554;-74
2023/08/18 13:09:45;;;;;;;21.30;11.50;;;;;;;28.12;35.22;97148.81;6197783;28;20406;-74
2023/08/18 13:12:52;;;;;;;15.75;10.98;;;;;;;28.03;35.37;97141.91;6207198;28;20046;-73
2023/08/18 13:15:56;;;;;;;22.95;11.15;;;;;;;28.06;35.25;97149.63;6203891;28;20209;-75
2023/08/18 13:19:01;;;;;;;20.10;10.68;;;;;;;28.13;35.38;97147.75;6200127;28;20104;-72
2023/08/18 13:22:07;;;;;;;15.60;10.57;;;;;;;28.20;35.27;97153.19;6207762;28;20042;-73
2023/08/18 13:25:14;;;;;;;32.72;18.65;;;;;;;28.20;35.64;97147.78;6198292;28;20177;-73
2023/08/18 13:28:16;;;;;;;17.05;8.75;;;;;;;28.31;35.26;97154.44;6201397;28;20049;-74
2023/08/18 13:31:19;;;;;;;22.98;8.52;;;;;;;28.24;35.25;97148.19;6200568;28;20424;-67
2023/08/18 13:34:26;;;;;;;14.88;7.93;;;;;;;28.38;35.14;97145.31;6203256;28;20049;-68
2023/08/18 13:37:30;;;;;;;17.92;9.93;;;;;;;28.35;35.11;97139.50;6203914;28;20536;-71
2023/08/18 13:40:36;;;;;;;19.92;12.02;;;;;;;28.34;35.32;97132.41;6205779;28;20165;-70
2023/08/18 13:43:37;;;;;;;22.60;13.68;;;;;;;28.35;35.31;97123.25;6202941;28;20116;-71
2023/08/18 13:46:39;;;;;;;20.50;12.43;;;;;;;28.40;35.08;97131.59;6201782;28;20084;-71
2023/08/18 13:49:41;;;;;;;20.27;10.57;;;;;;;28.49;34.93;97121.44;6195414;28;20233;-70
2023/08/18 13:52:47;;;;;;;14.38;8.05;;;;;;;28.72;34.40;97129.13;6205190;28;20482;-72
2023/08/18 13:55:51;;;;;;;55.38;30.50;;;;;;;28.98;35.06;97123.69;6202869;28;20053;-71
2023/08/18 13:58:55;;;;;;;50.05;29.80;;;;;;;29.13;35.19;97114.53;6204604;28;20042;-72
2023/08/18 14:02:03;;;;;;;41.05;22.98;;;;;;;29.25;36.64;97124.53;6201633;28;20042;-71
2023/08/18 14:05:06;;;;;;;29.00;18.02;;;;;;;29.17;37.04;97127.47;6199505;28;20050;-72
2023/08/18 14:08:08;;;;;;;22.57;14.27;;;;;;;29.04;37.16;97120.19;6197484;28;20129;-71
2023/08/18 14:11:15;;;;;;;27.30;17.10;;;;;;;28.89;37.59;97119.56;6197692;28;20038;-69
2023/08/18 14:14:21;;;;;;;27.85;15.38;;;;;;;28.74;38.34;97124.34;6200415;28;20056;-70
2023/08/18 14:17:41;;;;;;;18.02;13.10;;;;;;;28.65;37.79;97127.28;6201070;28;20046;-71
2023/08/18 14:20:47;;;;;;;21.33;12.30;;;;;;;28.51;38.32;97122.88;6196193;28;20050;-72
2023/08/18 14:23:52;;;;;;;29.05;19.30;;;;;;;28.34;39.19;97130.53;6190146;28;20047;-70